Time;durP1;ratioP1;P1;durP2;ratioP2;P2;SDS_P1;SDS_P2;PMS_P1;PMS_P2;Temp;Humidity;BMP_temperature;BMP_pressure;BME280_temperature;BME280_humidity;BME280_pressure;Samples;Min_cycle;Max_cycle;Signal;HPM_P1;HPM_P2
2023/10/12 11:25:12;;;;;;;7.30;3.10;;;;;;;21.63;53.60;96698.78;2081593;28;20561;-73
2023/10/12 11:27:42;;;;;;;9.35;4.38;;;;;;;21.74;53.45;96694.31;2084601;28;20562;-73
2023/10/12 11:30:31;;;;;;;13.00;4.15;;;;;;;21.88;53.04;96698.41;2099414;27;20585;-73
2023/10/12 11:33:29;;;;;;;10.07;4.53;;;;;;;21.95;52.98;96707.50;2099197;27;21234;-75
2023/10/12 11:36:18;;;;;;;22.02;5.70;;;;;;;22.06;53.22;96699.41;2083301;28;20576;-74
2023/10/12 11:39:18;;;;;;;13.60;4.00;;;;;;;22.04;53.23;96705.84;2086027;28;20573;-73
2023/10/12 11:42:06;;;;;;;13.70;4.55;;;;;;;22.06;53.21;96688.78;2092297;27;20567;-74
2023/10/12 11:43:11;;;;;;;13.25;4.60;;;;;;;22.15;53.43;96697.75;2090658;28;20219;-74
2023/10/12 11:46:03;;;;;;;19.50;4.60;;;;;;;22.20;52.07;96700.00;2083152;28;20569;-76
2023/10/12 11:47:07;;;;;;;15.95;4.70;;;;;;;22.15;52.63;96698.56;2082174;28;20188;-76
2023/10/12 11:48:22;;;;;;;11.85;4.95;;;;;;;22.16;52.75;96686.97;2081662;28;20211;-76
2023/10/12 11:49:24;;;;;;;11.57;3.83;;;;;;;22.27;52.57;96685.13;2080494;28;20189;-75
2023/10/12 11:50:35;;;;;;;8.10;4.25;;;;;;;22.29;52.46;96684.00;2074402;28;20198;-74
2023/10/12 11:53:30;;;;;;;7.15;4.05;;;;;;;22.38;52.46;96689.50;2095065;27;20576;-74
2023/10/12 11:54:34;;;;;;;8.27;3.40;;;;;;;22.37;52.25;96687.81;2084647;28;20764;-74
2023/10/12 11:55:40;;;;;;;13.35;4.22;;;;;;;22.35;52.35;96693.25;2079466;28;20249;-74
2023/10/12 11:56:44;;;;;;;12.10;4.28;;;;;;;22.41;52.18;96691.88;2072068;28;20197;-74
2023/10/12 11:57:54;;;;;;;12.95;4.85;;;;;;;22.38;52.57;96695.66;2074052;28;20206;-74
2023/10/12 12:00:48;;;;;;;16.70;5.03;;;;;;;22.37;51.40;96680.66;2092443;27;20575;-74
2023/10/12 12:01:57;;;;;;;12.88;5.30;;;;;;;22.32;51.88;96681.09;2087990;28;20200;-70
2023/10/12 12:02:59;;;;;;;16.45;7.32;;;;;;;22.33;52.11;96687.22;2089766;28;20199;-71
2023/10/12 12:04:03;;;;;;;12.45;7.45;;;;;;;22.38;52.08;96684.19;2091476;28;20196;-71
2023/10/12 12:06:53;;;;;;;12.60;4.75;;;;;;;22.33;51.10;96682.78;2090108;28;20914;-71
2023/10/12 12:07:56;;;;;;;13.20;5.03;;;;;;;22.29;50.95;96685.84;2091928;28;20211;-70
2023/10/12 12:08:59;;;;;;;12.25;4.70;;;;;;;22.30;51.13;96680.38;2090730;28;20214;-71
2023/10/12 12:10:01;;;;;;;17.38;4.63;;;;;;;22.26;51.56;96673.66;2086972;28;20216;-70
2023/10/12 12:11:04;;;;;;;20.42;10.10;;;;;;;22.34;51.53;96676.44;2086081;28;20211;-70
2023/10/12 12:12:12;;;;;;;19.92;8.38;;;;;;;22.30;52.26;96677.72;2084622;28;20774;-70
2023/10/12 12:13:20;;;;;;;13.32;6.05;;;;;;;22.34;51.76;96678.28;2085832;28;20241;-70
2023/10/12 12:14:21;;;;;;;18.63;4.30;;;;;;;22.32;50.87;96677.56;2085877;28;20203;-69
2023/10/12 12:15:24;;;;;;;11.77;4.22;;;;;;;22.31;50.70;96674.09;2085087;28;20220;-69
2023/10/12 12:16:26;;;;;;;17.55;5.05;;;;;;;22.29;51.19;96672.53;2083502;28;20271;-69
2023/10/12 12:17:28;;;;;;;10.93;4.35;;;;;;;22.27;50.76;96678.00;2085809;28;20201;-69
2023/10/12 12:18:29;;;;;;;8.40;3.50;;;;;;;22.33;51.24;96690.75;2085383;28;20211;-69
2023/10/12 12:21:37;;;;;;;9.80;4.00;;;;;;;22.25;50.62;96665.84;2081157;28;21255;-69
2023/10/12 12:22:42;;;;;;;14.68;4.60;;;;;;;22.22;50.25;96674.09;2082731;28;20189;-70
2023/10/12 12:23:48;;;;;;;11.07;3.92;;;;;;;22.18;50.13;96674.38;2082646;28;20208;-70
2023/10/12 12:24:49;;;;;;;14.18;5.10;;;;;;;22.14;49.56;96670.31;2078219;28;20317;-70
2023/10/12 12:25:51;;;;;;;12.35;4.28;;;;;;;22.18;49.61;96676.19;2076812;28;20201;-70
2023/10/12 12:29:03;;;;;;;9.88;4.50;;;;;;;22.05;50.02;96659.69;2083535;28;21318;-69
2023/10/12 12:30:09;;;;;;;12.68;3.95;;;;;;;22.09;50.34;96661.06;2075089;28;20304;-69
2023/10/12 12:33:27;;;;;;;17.55;4.90;;;;;;;22.02;49.56;96650.16;2081966;28;20553;-68
2023/10/12 12:34:47;;;;;;;12.90;4.35;;;;;;;21.99;49.88;96651.28;2081225;28;20194;-68
2023/10/12 12:38:00;;;;;;;13.05;4.18;;;;;;;21.91;50.51;96660.94;2082210;28;20560;-69
2023/10/12 12:40:57;;;;;;;13.63;4.85;;;;;;;21.85;50.63;96670.28;2092486;27;20581;-69
2023/10/12 12:44:00;;;;;;;8.43;3.53;;;;;;;21.79;51.21;96662.91;2090044;28;20558;-70
2023/10/12 12:47:06;;;;;;;12.10;3.88;;;;;;;21.72;51.01;96643.16;2097723;27;20565;-69
2023/10/12 12:50:14;;;;;;;11.50;3.95;;;;;;;21.76;51.21;96641.91;2076963;28;20569;-69
2023/10/12 12:53:18;;;;;;;13.13;4.53;;;;;;;21.82;51.70;96644.00;2085022;28;20538;-70
2023/10/12 12:56:11;;;;;;;17.00;4.60;;;;;;;21.88;50.87;96651.41;2076237;28;20561;-70
2023/10/12 12:57:15;;;;;;;11.60;4.47;;;;;;;21.88;50.85;96646.09;2074695;28;20208;-70
2023/10/12 12:58:17;;;;;;;11.60;3.75;;;;;;;21.91;50.88;96642.34;2073134;28;20196;-70
2023/10/12 12:59:24;;;;;;;16.23;3.65;;;;;;;21.94;51.07;96634.91;2073181;28;20190;-70
2023/10/12 13:00:25;;;;;;;8.50;4.03;;;;;;;21.97;51.08;96626.66;2060555;28;20218;-70
2023/10/12 13:01:27;;;;;;;16.58;3.92;;;;;;;22.03;50.83;96630.59;2057810;28;20195;-70
2023/10/12 13:02:31;;;;;;;15.40;5.18;;;;;;;22.11;51.01;96636.03;2056154;28;20199;-71
2023/10/12 13:03:33;;;;;;;10.55;4.32;;;;;;;22.13;51.19;96635.88;2055828;28;20658;-71
2023/10/12 13:04:35;;;;;;;14.98;3.90;;;;;;;22.17;51.53;96635.47;2057943;28;20199;-70
2023/10/12 13:05:37;;;;;;;14.52;4.20;;;;;;;22.14;51.11;96640.22;2057784;28;20222;-70
2023/10/12 13:06:39;;;;;;;8.98;4.55;;;;;;;22.12;51.24;96636.88;2056638;28;20664;-70
2023/10/12 13:07:41;;;;;;;15.02;4.50;;;;;;;22.21;51.37;96640.47;2057137;28;20661;-71
2023/10/12 13:08:42;;;;;;;13.05;4.20;;;;;;;22.30;51.51;96635.16;2056232;28;20198;-70
2023/10/12 13:09:47;;;;;;;14.90;3.80;;;;;;;22.34;51.32;96633.88;2058019;28;20245;-70
2023/10/12 13:10:50;;;;;;;10.90;4.10;;;;;;;22.32;51.08;96629.69;2056498;28;20199;-70
2023/10/12 13:11:51;;;;;;;9.15;4.22;;;;;;;22.35;50.84;96635.56;2057724;28;20213;-70
2023/10/12 13:12:53;;;;;;;10.95;4.90;;;;;;;22.31;50.93;96636.84;2054413;28;20238;-70
2023/10/12 13:13:54;;;;;;;9.77;4.30;;;;;;;22.34;51.56;96633.88;2059849;28;20432;-70
2023/10/12 13:14:59;;;;;;;7.82;3.65;;;;;;;22.21;50.53;96632.50;2057257;28;20623;-70
2023/10/12 13:16:05;;;;;;;16.98;4.88;;;;;;;22.21;50.47;96630.72;2057542;28;20245;-70
2023/10/12 13:17:08;;;;;;;15.35;4.72;;;;;;;22.22;50.81;96634.19;2056131;28;20209;-70
2023/10/12 13:18:16;;;;;;;10.05;4.07;;;;;;;22.23;51.06;96634.03;2058212;28;20310;-70
2023/10/12 13:19:17;;;;;;;13.50;3.90;;;;;;;22.24;51.12;96629.59;2054720;28;20195;-70
2023/10/12 13:20:22;;;;;;;17.33;5.18;;;;;;;22.24;51.08;96618.94;2056734;28;20783;-70
2023/10/12 13:21:23;;;;;;;9.35;4.13;;;;;;;22.27;51.31;96619.50;2056818;28;20223;-70
2023/10/12 13:22:26;;;;;;;12.02;4.28;;;;;;;22.32;51.54;96617.25;2057528;28;20233;-70
2023/10/12 13:23:27;;;;;;;11.52;4.22;;;;;;;22.32;52.10;96609.28;2058038;28;20224;-71
2023/10/12 13:24:35;;;;;;;20.48;4.43;;;;;;;22.34;51.47;96614.44;2055234;28;20191;-70
2023/10/12 13:25:37;;;;;;;16.38;4.55;;;;;;;22.35;51.70;96613.47;2055085;28;20207;-70
2023/10/12 13:26:43;;;;;;;9.10;4.40;;;;;;;22.31;51.26;96607.59;2053817;28;20296;-70
2023/10/12 13:27:51;;;;;;;6.63;3.50;;;;;;;22.43;50.97;96604.81;2057285;28;20195;-70
2023/10/12 13:28:53;;;;;;;7.97;3.80;;;;;;;22.52;50.72;96611.09;2057180;28;20230;-70
2023/10/12 13:30:01;;;;;;;11.45;4.30;;;;;;;22.62;51.00;96598.59;2058725;28;20218;-71
2023/10/12 13:31:04;;;;;;;13.10;4.03;;;;;;;22.61;50.04;96600.41;2058052;28;20203;-70
2023/10/12 13:32:08;;;;;;;11.18;4.03;;;;;;;22.52;49.85;96603.94;2058650;28;20198;-71
2023/10/12 13:33:13;;;;;;;12.73;5.18;;;;;;;22.45;49.99;96600.19;2058219;28;20298;-70
2023/10/12 13:34:17;;;;;;;13.98;4.00;;;;;;;22.50;50.27;96598.75;2055750;28;20202;-70
2023/10/12 13:35:31;;;;;;;12.45;4.55;;;;;;;22.41;50.28;96589.00;2055188;28;20265;-71
2023/10/12 13:36:33;;;;;;;12.88;3.97;;;;;;;22.44;49.98;96586.03;2056901;28;20689;-70
2023/10/12 13:37:35;;;;;;;10.73;4.57;;;;;;;22.49;50.21;96588.28;2057516;28;20282;-70
2023/10/12 13:38:37;;;;;;;23.38;5.50;;;;;;;22.51;50.35;96588.94;2056672;28;20199;-70
2023/10/12 13:39:39;;;;;;;12.40;4.32;;;;;;;22.53;49.87;96592.31;2056188;28;20753;-70
2023/10/12 13:40:44;;;;;;;15.98;4.85;;;;;;;22.65;50.17;96587.63;2056839;28;20274;-70
2023/10/12 13:41:46;;;;;;;14.48;4.03;;;;;;;22.72;50.07;96585.25;2060096;28;20253;-70
2023/10/12 13:42:47;;;;;;;9.57;3.97;;;;;;;22.64;50.33;96586.00;2058780;28;20233;-70
2023/10/12 13:43:49;;;;;;;11.25;4.93;;;;;;;22.72;50.14;96574.63;2059278;28;20203;-70
2023/10/12 13:44:50;;;;;;;9.10;4.60;;;;;;;22.70;50.57;96579.22;2058163;28;20218;-70
2023/10/12 13:45:54;;;;;;;9.30;3.80;;;;;;;22.68;50.03;96590.03;2059270;28;20275;-70
2023/10/12 13:46:56;;;;;;;12.00;4.47;;;;;;;22.75;50.47;96587.63;2057054;28;20325;-70
2023/10/12 13:47:58;;;;;;;20.55;5.28;;;;;;;22.83;50.22;96587.72;2054327;28;20195;-70
2023/10/12 13:49:02;;;;;;;9.45;4.57;;;;;;;22.87;49.81;96590.91;2057076;28;20200;-71
2023/10/12 13:50:05;;;;;;;10.25;4.30;;;;;;;22.82;49.44;96588.72;2056994;28;20460;-70
2023/10/12 13:51:23;;;;;;;10.90;3.65;;;;;;;22.82;49.94;96586.88;2055532;28;20203;-70
2023/10/12 13:52:25;;;;;;;15.30;4.00;;;;;;;22.88;49.72;96585.47;2055588;28;20191;-70
2023/10/12 13:53:27;;;;;;;10.73;4.45;;;;;;;22.96;50.01;96590.88;2055586;28;20563;-70
2023/10/12 13:54:29;;;;;;;11.20;4.40;;;;;;;22.94;49.82;96584.88;2055604;28;20195;-70
2023/10/12 13:55:36;;;;;;;12.45;4.40;;;;;;;22.96;49.78;96590.88;2060914;28;20589;-70
2023/10/12 13:56:38;;;;;;;14.43;4.00;;;;;;;22.97;50.00;96587.25;2064721;28;20294;-70
2023/10/12 13:57:55;;;;;;;12.48;4.18;;;;;;;23.06;49.70;96590.84;2063627;28;20731;-70
2023/10/12 13:59:00;;;;;;;9.30;4.18;;;;;;;23.15;49.71;96586.47;2065695;28;20374;-70
2023/10/12 14:00:01;;;;;;;12.45;4.53;;;;;;;23.26;49.62;96593.41;2065205;28;20233;-70
2023/10/12 14:01:04;;;;;;;11.85;4.68;;;;;;;23.20;49.63;96584.22;2065971;28;20203;-69
2023/10/12 14:02:09;;;;;;;14.48;4.85;;;;;;;23.24;49.49;96585.59;2065463;28;20190;-69
2023/10/12 14:03:10;;;;;;;12.55;4.60;;;;;;;23.26;49.23;96588.94;2065463;28;20252;-69
2023/10/12 14:04:33;;;;;;;7.45;3.90;;;;;;;23.26;49.34;96583.63;2065629;28;20202;-69
2023/10/12 14:05:34;;;;;;;10.00;4.15;;;;;;;23.39;49.24;96585.91;2064083;28;20214;-69
2023/10/12 14:06:43;;;;;;;8.77;3.58;;;;;;;23.48;48.89;96576.19;2065562;28;20206;-69
2023/10/12 14:07:45;;;;;;;12.77;3.78;;;;;;;23.40;48.73;96570.75;2058885;28;20202;-69
2023/10/12 14:08:46;;;;;;;8.50;3.72;;;;;;;23.36;48.62;96580.88;2059655;28;20559;-69
2023/10/12 14:09:48;;;;;;;9.95;4.28;;;;;;;23.33;48.54;96570.53;2051574;28;20226;-69
2023/10/12 14:10:54;;;;;;;14.68;4.90;;;;;;;23.36;48.55;96575.53;2059630;28;20202;-69
2023/10/12 14:11:55;;;;;;;8.70;4.18;;;;;;;23.49;48.56;96564.53;2060069;28;20325;-69
2023/10/12 14:12:59;;;;;;;9.60;3.80;;;;;;;23.59;48.41;96567.97;2060767;28;20227;-69
2023/10/12 14:14:02;;;;;;;13.43;4.65;;;;;;;23.57;48.48;96569.94;2056765;28;20286;-69
2023/10/12 14:15:04;;;;;;;15.90;5.10;;;;;;;23.64;48.74;96576.34;2058616;28;20273;-69
2023/10/12 14:16:09;;;;;;;11.35;4.53;;;;;;;23.61;48.75;96576.63;2061015;28;20205;-69
2023/10/12 14:17:11;;;;;;;11.93;4.32;;;;;;;23.46;49.07;96571.00;2061169;28;20230;-68
2023/10/12 14:18:17;;;;;;;21.20;11.82;;;;;;;23.51;49.24;96564.38;2058596;28;20712;-71
2023/10/12 14:19:23;;;;;;;7.63;4.32;;;;;;;23.48;49.43;96571.69;2061011;28;20191;-73
2023/10/12 14:20:28;;;;;;;14.27;6.22;;;;;;;23.49;49.54;96567.22;2059036;28;20226;-73
2023/10/12 14:21:30;;;;;;;14.68;8.38;;;;;;;23.31;49.61;96536.06;2059508;28;20646;-70
2023/10/12 14:22:34;;;;;;;15.63;4.30;;;;;;;23.63;49.50;96563.19;2060475;28;20644;-71
2023/10/12 14:23:45;;;;;;;7.40;3.50;;;;;;;23.75;49.00;96561.94;2059386;28;20195;-70
2023/10/12 14:24:47;;;;;;;13.25;4.88;;;;;;;23.71;49.29;96562.41;2059652;28;20682;-70
2023/10/12 14:25:50;;;;;;;11.50;4.57;;;;;;;23.74;48.97;96570.91;2059825;28;20214;-71
2023/10/12 14:26:55;;;;;;;9.65;4.47;;;;;;;23.67;49.03;96566.34;2059526;28;20625;-69
2023/10/12 14:28:00;;;;;;;11.05;4.18;;;;;;;23.76;49.06;96562.78;2059014;28;20221;-69
2023/10/12 14:29:08;;;;;;;10.93;4.32;;;;;;;23.73;49.31;96557.75;2060193;28;20768;-69
2023/10/12 14:30:16;;;;;;;9.63;4.47;;;;;;;23.86;48.28;96563.53;2058472;28;20737;-68
2023/10/12 14:31:21;;;;;;;10.18;4.35;;;;;;;23.68;48.43;96570.69;2059644;28;20283;-68
2023/10/12 14:32:25;;;;;;;13.38;3.47;;;;;;;23.71;47.96;96557.91;2059576;28;20204;-68
2023/10/12 14:33:30;;;;;;;19.00;4.15;;;;;;;23.66;47.74;96557.53;2060928;28;20211;-68
2023/10/12 14:34:32;;;;;;;16.85;3.75;;;;;;;23.76;48.14;96557.47;2059481;28;20206;-68
2023/10/12 14:35:35;;;;;;;10.02;3.65;;;;;;;23.80;48.05;96562.31;2059211;28;20310;-68
2023/10/12 14:36:38;;;;;;;12.23;4.22;;;;;;;23.87;47.93;96553.69;2059099;28;20210;-68
2023/10/12 14:37:40;;;;;;;9.05;4.00;;;;;;;23.88;48.12;96550.88;2065241;28;20195;-68
2023/10/12 14:38:44;;;;;;;13.07;4.00;;;;;;;24.03;47.80;96553.03;2067044;28;20239;-68
2023/10/12 14:39:46;;;;;;;12.70;4.38;;;;;;;24.26;47.79;96553.34;2058985;28;20231;-68
2023/10/12 14:40:48;;;;;;;9.10;3.70;;;;;;;24.28;47.76;96549.53;2060246;28;20202;-68
2023/10/12 14:41:50;;;;;;;16.83;5.25;;;;;;;24.15;48.38;96550.94;2058654;28;20210;-68
2023/10/12 14:42:52;;;;;;;11.77;4.30;;;;;;;24.06;48.10;96542.03;2059819;28;20203;-73
2023/10/12 14:43:54;;;;;;;12.90;4.45;;;;;;;23.98;48.71;96545.50;2058821;28;20245;-73
2023/10/12 14:44:56;;;;;;;10.52;4.18;;;;;;;23.90;48.90;96554.25;2058036;28;20309;-72
2023/10/12 14:45:58;;;;;;;11.13;3.92;;;;;;;23.79;48.93;96544.66;2062767;28;20589;-72
2023/10/12 14:47:06;;;;;;;9.40;4.40;;;;;;;23.71;49.35;96547.25;2062883;28;20230;-72
2023/10/12 14:48:11;;;;;;;14.07;4.18;;;;;;;23.60;49.81;96550.13;2060460;28;20582;-73
2023/10/12 14:49:14;;;;;;;7.28;4.95;;;;;;;23.48;50.12;96545.03;2062295;28;20238;-73
2023/10/12 14:50:20;;;;;;;16.92;4.10;;;;;;;23.26;50.41;96541.00;2060766;28;20230;-73
2023/10/12 14:51:25;;;;;;;10.05;3.95;;;;;;;23.17;50.31;96541.88;2062670;28;20194;-74
2023/10/12 14:52:31;;;;;;;11.43;4.20;;;;;;;23.14;50.52;96534.19;2062577;28;20275;-74
2023/10/12 14:53:33;;;;;;;10.95;4.45;;;;;;;23.17;50.18;96535.72;2060302;28;20191;-73
2023/10/12 14:54:35;;;;;;;13.75;3.75;;;;;;;23.14;50.61;96542.16;2059642;28;20846;-73
2023/10/12 14:55:37;;;;;;;14.57;4.13;;;;;;;23.07;50.67;96541.94;2059153;28;20586;-73
2023/10/12 14:56:42;;;;;;;8.23;3.60;;;;;;;23.11;50.70;96545.97;2059920;28;20218;-72
2023/10/12 14:57:44;;;;;;;13.38;4.50;;;;;;;23.24;50.40;96542.97;2059799;28;20218;-73
2023/10/12 14:58:45;;;;;;;14.50;4.13;;;;;;;23.22;50.89;96534.28;2059728;28;20532;-73
2023/10/12 14:59:47;;;;;;;12.63;4.55;;;;;;;23.23;51.01;96537.81;2060028;28;20338;-72
2023/10/12 15:00:50;;;;;;;13.65;4.20;;;;;;;23.12;50.42;96534.34;2059893;28;20195;-72
2023/10/12 15:01:52;;;;;;;9.77;4.05;;;;;;;23.07;50.90;96538.41;2061019;28;20679;-73
2023/10/12 15:02:57;;;;;;;10.50;5.10;;;;;;;23.07;51.17;96541.06;2061261;28;20205;-73
2023/10/12 15:03:59;;;;;;;13.30;4.35;;;;;;;23.06;50.83;96542.06;2059442;28;20813;-73
2023/10/12 15:05:01;;;;;;;13.07;4.40;;;;;;;22.98;50.43;96543.66;2058089;28;20301;-73
2023/10/12 15:06:02;;;;;;;10.45;4.13;;;;;;;22.92;51.11;96544.25;2060357;28;20203;-72
2023/10/12 15:07:04;;;;;;;10.60;3.97;;;;;;;22.87;50.91;96543.84;2060192;28;20233;-73
2023/10/12 15:08:09;;;;;;;12.50;4.25;;;;;;;22.87;50.76;96541.19;2059417;28;20416;-72
2023/10/12 15:09:12;;;;;;;9.25;4.03;;;;;;;22.88;50.74;96534.91;2058422;28;20253;-73
2023/10/12 15:10:17;;;;;;;14.60;5.15;;;;;;;22.90;50.61;96532.06;2057362;28;20223;-72
2023/10/12 15:11:19;;;;;;;11.95;4.60;;;;;;;22.93;50.43;96535.28;2058391;28;20194;-72
2023/10/12 15:12:20;;;;;;;9.68;4.32;;;;;;;22.89;50.29;96535.72;2058019;28;20206;-72
2023/10/12 15:13:25;;;;;;;9.13;3.38;;;;;;;23.00;50.18;96538.19;2058511;28;21051;-72
2023/10/12 15:14:27;;;;;;;11.27;4.30;;;;;;;23.00;50.57;96540.84;2057364;28;20531;-72
2023/10/12 15:15:28;;;;;;;10.55;3.60;;;;;;;22.97;50.49;96530.50;2060324;28;20556;-72
2023/10/12 15:16:30;;;;;;;13.05;4.10;;;;;;;22.94;50.59;96536.09;2061050;28;20592;-72
2023/10/12 15:17:33;;;;;;;10.75;4.53;;;;;;;22.87;50.10;96541.19;2060101;28;20499;-72
2023/10/12 15:18:34;;;;;;;23.88;5.10;;;;;;;22.86;50.17;96539.50;2057793;28;20191;-72
2023/10/12 15:19:36;;;;;;;12.48;3.97;;;;;;;22.87;50.07;96535.88;2058742;28;20190;-72
2023/10/12 15:20:38;;;;;;;13.70;4.30;;;;;;;22.84;50.09;96546.78;2059857;28;20741;-72
2023/10/12 15:21:39;;;;;;;17.15;4.60;;;;;;;22.82;50.00;96551.44;2059200;28;20203;-72
2023/10/12 15:22:44;;;;;;;21.92;3.80;;;;;;;22.79;49.79;96541.09;2059241;28;20201;-73
2023/10/12 15:23:46;;;;;;;14.15;4.43;;;;;;;22.72;49.90;96542.69;2061825;28;20206;-73
2023/10/12 15:24:48;;;;;;;13.57;4.78;;;;;;;22.71;50.14;96546.31;2059090;28;20293;-73
2023/10/12 15:26:00;;;;;;;8.45;3.80;;;;;;;22.60;50.01;96545.53;2060287;28;20716;-73
2023/10/12 15:27:02;;;;;;;17.77;4.20;;;;;;;22.56;49.67;96545.94;2059768;28;20266;-72
2023/10/12 15:28:12;;;;;;;5.43;2.95;;;;;;;22.59;49.90;96553.63;2061249;28;20294;-73
2023/10/12 15:29:14;;;;;;;13.38;3.63;;;;;;;22.54;50.19;96546.09;2060448;28;20238;-72
2023/10/12 15:30:16;;;;;;;19.50;4.18;;;;;;;22.50;50.14;96553.53;2058620;28;20229;-73
2023/10/12 15:31:23;;;;;;;12.38;3.67;;;;;;;22.48;51.01;96552.81;2056824;28;20202;-73
2023/10/12 15:32:25;;;;;;;9.15;4.20;;;;;;;22.41;51.06;96553.56;2058031;28;20206;-72
2023/10/12 15:33:27;;;;;;;9.88;4.20;;;;;;;22.37;50.85;96554.84;2060658;28;20365;-73
2023/10/12 15:34:32;;;;;;;11.98;4.10;;;;;;;22.35;51.17;96553.13;2058177;28;20202;-73
2023/10/12 15:35:34;;;;;;;11.88;3.50;;;;;;;22.35;51.09;96558.44;2059940;28;20229;-73
2023/10/12 15:36:36;;;;;;;12.63;4.25;;;;;;;22.32;51.07;96564.06;2059170;28;20554;-73
2023/10/12 15:37:48;;;;;;;19.23;4.25;;;;;;;22.37;50.62;96560.16;2060897;28;20776;-73
2023/10/12 15:38:49;;;;;;;10.63;4.07;;;;;;;22.34;50.98;96554.09;2061517;28;20195;-72
2023/10/12 15:39:51;;;;;;;18.20;4.25;;;;;;;22.28;51.36;96554.69;2058803;28;20223;-72
2023/10/12 15:40:56;;;;;;;12.40;3.85;;;;;;;22.20;51.59;96543.94;2059385;28;20876;-72
2023/10/12 15:41:58;;;;;;;15.25;4.88;;;;;;;22.19;51.80;96558.19;2059273;28;20697;-73
2023/10/12 15:43:06;;;;;;;10.63;4.03;;;;;;;22.17;51.97;96563.66;2060161;28;20209;-72
2023/10/12 15:44:08;;;;;;;12.90;4.30;;;;;;;22.24;50.16;96565.75;2060122;28;20206;-73
2023/10/12 15:45:10;;;;;;;8.30;3.58;;;;;;;22.21;50.80;96566.03;2058844;28;20219;-72
2023/10/12 15:46:12;;;;;;;9.52;5.07;;;;;;;22.17;50.64;96570.81;2058911;28;20736;-71
2023/10/12 15:47:14;;;;;;;14.85;8.35;;;;;;;22.17;50.48;96560.19;2059428;28;20784;-72
2023/10/12 15:48:15;;;;;;;15.13;6.05;;;;;;;22.18;50.34;96567.16;2056105;28;20203;-72
2023/10/12 15:49:16;;;;;;;8.75;3.58;;;;;;;22.16;50.36;96569.97;2055765;28;20265;-71
